Thunder radar more information blitzortung!


Radar de pluja more information rain snow radar


Visita la nostra xarxa de llocs de meteo:

Template documentation
and downloads

And another site



Extreme low temperature From: 23-02-2018 00:00 Until: 09:59 warning for: Extreme low temperature Level: Yellow info button

Pagina Historial Weather Underground text

Diari Resum Juliol 5, 2017 Unitats:  Mètric    Imperial   Tant
« Previous Dia
SegĂźent Dia »
Diari Setmana Mensual Anual Personalitzada
  Maxima: Minima: Media:
Temperatura: -17.8 °C -8.8 °C -3.9 °C
Punt de rosada: -17.8 °C -12 °C -9.9 °C
Humitat: Humidity % 33 % 53 %
Wind Speed: 0 km/h 0 km/h 14 km/h
RĂ fegues de vent: 0 km/h - -
Vent:- - ESE
Pression baro: 0 hPa 34293.4 hPa -
Precipitacions: 0 mm    
Historical Graphs
 
 
Dades de taula per Juliol 5, 2017
Temps Temperatura Punt de rosada Pression baro Vent Wind Speed RĂ fegues de vent Humitat Rainfall Rate (Hourly)
-17.8 °C -17.8 °C 0 hPa Calm     Humidity % 0 mm
00:04 -5.8 °C -11.4 °C 34395 hPa Calm     53 % 0 mm
00:05 -8.6 °C -11.8 °C 34395 hPa Calm     69 % 0 mm
00:09 -5.9 °C -11.5 °C 34395 hPa Calm     53 % 0 mm
00:15 -8.6 °C -11.7 °C 34428.8 hPa Calm   2.6 km/h 69 % 0 mm
00:25 -8.6 °C -11.7 °C 34428.8 hPa Calm   2.6 km/h 69 % 0 mm
00:35 -8.6 °C -11.8 °C 34395 hPa Calm     69 % 0 mm
00:45 -8.7 °C -11.8 °C 34395 hPa Calm     69 % 0 mm
00:55 -8.7 °C -11.9 °C 34395 hPa Calm     69 % 0 mm
01:05 -8.8 °C -12 °C 34395 hPa Calm     69 % 0 mm
01:15 -8.8 °C -11.8 °C 34395 hPa Calm     70 % 0 mm
01:25 -8.8 °C -11.8 °C 34395 hPa Calm     70 % 0 mm
01:35 -8.7 °C -11.7 °C 34395 hPa Calm   5.1 km/h 70 % 0 mm
01:45 -8.6 °C -11.7 °C 34395 hPa Calm   5.1 km/h 70 % 0 mm
01:55 -8.6 °C -11.7 °C 34395 hPa Calm     69 % 0 mm
02:05 -8.4 °C -11.6 °C 34395 hPa NE 2.6 km/h 2.6 km/h 69 % 0 mm
02:15 -8.3 °C -11.6 °C 34395 hPa Calm   2.6 km/h 68 % 0 mm
02:25 -8.1 °C -11.6 °C 34395 hPa ENE 5.1 km/h 7.7 km/h 66 % 0 mm
02:35 -8.5 °C -11.8 °C 34395 hPa SW 5.1 km/h 7.7 km/h 68 % 0 mm
02:45 -8.4 °C -11.8 °C 34395 hPa SW 2.6 km/h 5.1 km/h 68 % 0 mm
02:55 -7.9 °C -11.4 °C 34395 hPa Calm   5.1 km/h 67 % 0 mm
03:05 -7.2 °C -11.1 °C 34395 hPa South 2.6 km/h 5.1 km/h 64 % 0 mm
03:15 -7.3 °C -11.2 °C 34395 hPa Calm   5.1 km/h 64 % 0 mm
03:25 -7.1 °C -11.3 °C 34395 hPa SSW 5.1 km/h 5.1 km/h 62 % 0 mm
03:35 -7.2 °C -11.5 °C 34395 hPa SW 2.6 km/h 7.7 km/h 61 % 0 mm
03:45 -7 °C -11.3 °C 34395 hPa SW 5.1 km/h 5.1 km/h 61 % 0 mm
03:55 -6.6 °C -11.2 °C 34395 hPa SW 2.6 km/h 5.1 km/h 59 % 0 mm
04:05 -5.7 °C -10.6 °C 34395 hPa SW 2.6 km/h 5.1 km/h 57 % 0 mm
04:15 -5 °C -10.4 °C 34361.1 hPa WNW 2.6 km/h 5.1 km/h 54 % 0 mm
04:25 -5.1 °C -10.7 °C 34361.1 hPa NNE 5.1 km/h 5.1 km/h 53 % 0 mm
04:35 -4.6 °C -10.4 °C 34395 hPa NNE 2.6 km/h 7.7 km/h 52 % 0 mm
04:45 -4.4 °C -10.6 °C 34395 hPa NE 5.1 km/h 7.7 km/h 50 % 0 mm
04:55 -4.2 °C -10.4 °C 34395 hPa ENE 2.6 km/h 7.7 km/h 50 % 0 mm
05:05 -4.2 °C -10.5 °C 34361.1 hPa NE 5.1 km/h 7.7 km/h 49 % 0 mm
05:15 -3.7 °C -10.4 °C 34395 hPa NE 2.6 km/h 5.1 km/h 47 % 0 mm
05:25 -3.5 °C -10.2 °C 34395 hPa NNE 2.6 km/h 5.1 km/h 47 % 0 mm
05:35 -3.4 °C -10.6 °C 34361.1 hPa SE 5.1 km/h 10.3 km/h 45 % 0 mm
05:45 -3.2 °C -10.8 °C 34395 hPa SE 2.6 km/h 7.7 km/h 43 % 0 mm
05:55 -3.1 °C -10.7 °C 34395 hPa ESE 7.7 km/h 12.9 km/h 43 % 0 mm
06:05 -2.5 °C -10.5 °C 34361.1 hPa ESE 2.6 km/h 7.7 km/h 41 % 0 mm
06:15 -2.2 °C -10.4 °C 34395 hPa SSE 2.6 km/h 7.7 km/h 40 % 0 mm
11:15 -2.2 °C -10.2 °C 34395 hPa SE 9.8 km/h 9.8 km/h 41 % 0 mm
11:20 -2.4 °C -10.6 °C 34395 hPa SSE 9 km/h 9 km/h 40 % 0 mm
11:25 -2.2 °C -10.4 °C 34361.1 hPa WNW 6 km/h 6 km/h 40 % 0 mm
11:30 -2.1 °C -10.6 °C 34361.1 hPa SSE 9 km/h 9 km/h 39 % 0 mm
11:35 -2.3 °C -10.7 °C 34361.1 hPa NE 11.9 km/h 11.9 km/h 39 % 0 mm
11:40 -2.1 °C -11.1 °C 34395 hPa East 11.9 km/h 11.9 km/h 37 % 0 mm
11:45 -2.1 °C -10.8 °C 34395 hPa SW 11.9 km/h 11.9 km/h 38 % 0 mm
11:50 -1.7 °C -10.9 °C 34395 hPa SE 11.9 km/h 11.9 km/h 36 % 0 mm
11:55 -1.8 °C -10.7 °C 34361.1 hPa ESE 6 km/h 6.3 km/h 37 % 0 mm
12:00 -1.5 °C -10.9 °C 34361.1 hPa ESE 9 km/h 9 km/h 35 % 0 mm
12:05 -1.6 °C -11 °C 34361.1 hPa East 11.9 km/h 11.9 km/h 35 % 0 mm
12:10 -1.7 °C -11.3 °C 34395 hPa NNE 15 km/h 15 km/h 34 % 0 mm
12:15 -1.6 °C -11.3 °C 34395 hPa ESE 15 km/h 15 km/h 34 % 0 mm
12:20 -1.8 °C -11.2 °C 34395 hPa NE 11.9 km/h 11.9 km/h 35 % 0 mm
12:25 -1.8 °C -11.4 °C 34428.8 hPa WSW 20.9 km/h 20.9 km/h 34 % 0 mm
12:30 -1.6 °C -11.6 °C 34428.8 hPa ENE 11.9 km/h 11.9 km/h 33 % 0 mm
12:35 -1.3 °C -11.1 °C 34428.8 hPa North 6 km/h 6 km/h 34 % 0 mm
12:40 -1 °C -11 °C 34395 hPa ENE 10.3 km/h 10.3 km/h 33 % 0 mm
12:45 -1.2 °C -11 °C 34395 hPa ESE 15 km/h 15 km/h 34 % 0 mm
12:50 -1.5 °C -10.7 °C 34395 hPa NE 20.9 km/h 20.9 km/h 36 % 0 mm
12:55 -1.5 °C -10.3 °C 34395 hPa ENE 29.8 km/h 29.8 km/h 38 % 0 mm
13:00 -1.7 °C -10.2 °C 34395 hPa ENE 17.9 km/h 17.9 km/h 39 % 0 mm
13:01 -1.6 °C -10.2 °C 34395 hPa ESE 17.9 km/h 17.9 km/h 39 % 0 mm
13:06 -1.8 °C -9.9 °C 34395 hPa ENE 20.9 km/h 20.9 km/h 41 % 0 mm
13:11 -1.7 °C -9.8 °C 34395 hPa SSE 31.9 km/h 31.9 km/h 41 % 0 mm
13:16 -1.9 °C -9.8 °C 34395 hPa NNE 17.9 km/h 17.9 km/h 42 % 0 mm
13:21 -1.8 °C -9.5 °C 34395 hPa ESE 26.9 km/h 26.9 km/h 43 % 0 mm
13:26 -1.6 °C -9.5 °C 34361.1 hPa East 20.3 km/h 20.3 km/h 42 % 0 mm
13:31 -1.7 °C -9.4 °C 34361.1 hPa ESE 26.9 km/h 26.9 km/h 43 % 0 mm
13:36 -1.7 °C -9.4 °C 34361.1 hPa ENE 20.9 km/h 20.9 km/h 43 % 0 mm
13:41 -1.8 °C -9.4 °C 34361.1 hPa East 20.9 km/h 20.9 km/h 43 % 0 mm
13:46 -1.8 °C -9.5 °C 34361.1 hPa NE 20.9 km/h 20.9 km/h 43 % 0 mm
13:51 -1.7 °C -9.6 °C 34361.1 hPa ESE 15 km/h 15 km/h 42 % 0 mm
13:56 -1.8 °C -9.4 °C 34361.1 hPa SE 20.9 km/h 20.9 km/h 43 % 0 mm
14:01 -1.7 °C -9.3 °C 34361.1 hPa ENE 26.9 km/h 26.9 km/h 43 % 0 mm
14:06 -1.8 °C -9.3 °C 34361.1 hPa ESE 22 km/h 22 km/h 44 % 0 mm
14:11 -1.9 °C -9.3 °C 34361.1 hPa ESE 26.9 km/h 26.9 km/h 44 % 0 mm
14:16 -1.8 °C -9.4 °C 34361.1 hPa ESE 26.9 km/h 26.9 km/h 43 % 0 mm
14:21 -1.7 °C -9.6 °C 34361.1 hPa ESE 26.9 km/h 26.9 km/h 42 % 0 mm
14:26 -1.8 °C -9.4 °C 34361.1 hPa ESE 20.9 km/h 20.9 km/h 43 % 0 mm
14:31 -1.7 °C -9.6 °C 34361.1 hPa East 29.8 km/h 29.8 km/h 42 % 0 mm
14:36 -1.6 °C -9.5 °C 34361.1 hPa East 35.7 km/h 35.7 km/h 42 % 0 mm
14:41 -1.7 °C -9.4 °C 34361.1 hPa ESE 32.8 km/h 32.8 km/h 43 % 0 mm
14:46 -1.7 °C -9.6 °C 34361.1 hPa ESE 17.9 km/h 17.9 km/h 42 % 0 mm
14:51 -1.5 °C -9.4 °C 34361.1 hPa SE 27.7 km/h 27.7 km/h 42 % 0 mm
14:56 -1.7 °C -9.4 °C 34361.1 hPa East 26.9 km/h 26.9 km/h 43 % 0 mm
15:01 -1.6 °C -9.5 °C 34361.1 hPa ESE 23.8 km/h 23.8 km/h 42 % 0 mm
15:06 -1.8 °C -9.4 °C 34361.1 hPa East 32.8 km/h 32.8 km/h 43 % 0 mm
15:11 -1.7 °C -9.6 °C 34361.1 hPa ENE 26.9 km/h 26.9 km/h 42 % 0 mm
15:16 -1.7 °C -9.6 °C 34361.1 hPa ENE 14 km/h 14 km/h 42 % 0 mm
15:21 -1.5 °C -9.4 °C 34361.1 hPa ESE 32.8 km/h 32.8 km/h 42 % 0 mm
15:26 -1.7 °C -9.4 °C 34361.1 hPa ESE 29.8 km/h 29.8 km/h 43 % 0 mm
15:31 -1.8 °C -9.4 °C 34361.1 hPa ESE 25.9 km/h 25.9 km/h 43 % 0 mm
15:36 -1.7 °C -9.4 °C 34361.1 hPa ESE 20.9 km/h 20.9 km/h 43 % 0 mm
15:41 -1.6 °C -9.7 °C 34361.1 hPa ESE 22.5 km/h 22.5 km/h 41 % 0 mm
15:46 -1.8 °C -9.7 °C 34361.1 hPa South 26.9 km/h 26.9 km/h 42 % 0 mm
15:51 -1.6 °C -9.7 °C 34361.1 hPa ESE 19.6 km/h 19.6 km/h 41 % 0 mm
15:57 -1.7 °C -9.8 °C 34361.1 hPa ESE 26.9 km/h 26.9 km/h 41 % 0 mm
16:02 -1.6 °C -9.7 °C 34361.1 hPa ENE 20.9 km/h 20.9 km/h 41 % 0 mm
16:07 -1.6 °C -9.9 °C 34361.1 hPa NE 26.4 km/h 26.4 km/h 40 % 0 mm
16:12 -1.8 °C -9.9 °C 34361.1 hPa ESE 23.8 km/h 23.8 km/h 41 % 0 mm
16:17 -1.6 °C -9.9 °C 34361.1 hPa ESE 23.8 km/h 23.8 km/h 40 % 0 mm
16:22 -1.6 °C -10.1 °C 34361.1 hPa East 15 km/h 15 km/h 39 % 0 mm
16:27 -1.8 °C -10.1 °C 34361.1 hPa ESE 15 km/h 15 km/h 40 % 0 mm
16:32 -1.7 °C -10.4 °C 34361.1 hPa ESE 29.8 km/h 29.8 km/h 38 % 0 mm
16:37 -1.7 °C -10.4 °C 34361.1 hPa ESE 20.9 km/h 20.9 km/h 38 % 0 mm
16:42 -1.6 °C -10.3 °C 34361.1 hPa ESE 14 km/h 14 km/h 38 % 0 mm
16:47 -1.6 °C -10.4 °C 34361.1 hPa SSE 26.9 km/h 26.9 km/h 38 % 0 mm
16:52 -1.7 °C -10.4 °C 34361.1 hPa South 29.8 km/h 29.8 km/h 38 % 0 mm
16:57 -1.6 °C -10.3 °C 34361.1 hPa NNE 17.9 km/h 17.9 km/h 38 % 0 mm
17:02 -1.7 °C -10.4 °C 34361.1 hPa ESE 23.8 km/h 23.8 km/h 38 % 0 mm
17:07 -1.7 °C -10.4 °C 34361.1 hPa SE 15 km/h 15.6 km/h 38 % 0 mm
17:12 -1.7 °C -10.2 °C 34361.1 hPa SE 15 km/h 15 km/h 39 % 0 mm
17:17 -1.7 °C -10.2 °C 34361.1 hPa East 17.9 km/h 17.9 km/h 39 % 0 mm
17:22 -1.7 °C -10.4 °C 34361.1 hPa ENE 22 km/h 22 km/h 38 % 0 mm
17:23 -1.8 °C -10.3 °C 34361.1 hPa ESE 20.9 km/h 20.9 km/h 39 % 0 mm
17:28 -2 °C -10.5 °C 34327.3 hPa ESE 32.8 km/h 32.8 km/h 39 % 0 mm
17:33 -2 °C -10.5 °C 34327.3 hPa ESE 23.8 km/h 23.8 km/h 39 % 0 mm
17:38 -1.8 °C -10.3 °C 34327.3 hPa ESE 17.9 km/h 17.9 km/h 39 % 0 mm
17:43 -1.8 °C -10.3 °C 34327.3 hPa ESE 29.8 km/h 29.8 km/h 39 % 0 mm
17:44 -1.9 °C -10.4 °C 34327.3 hPa ESE 30.6 km/h 30.6 km/h 39 % 0 mm
17:49 -2.2 °C -10.4 °C 34327.3 hPa ESE 27.2 km/h 27.2 km/h 40 % 0 mm
17:54 -2.1 °C -10.2 °C 34327.3 hPa ESE 22 km/h 22 km/h 41 % 0 mm
17:59 -2.1 °C -10.1 °C 34327.3 hPa East 20.9 km/h 20.9 km/h 41 % 0 mm
18:04 -2.2 °C -10.3 °C 34327.3 hPa ESE 26.9 km/h 26.9 km/h 41 % 0 mm
18:09 -2.2 °C -10.2 °C 34327.3 hPa ENE 20.9 km/h 20.9 km/h 41 % 0 mm
18:14 -2.1 °C -9.9 °C 34327.3 hPa SSE 20.9 km/h 20.9 km/h 42 % 0 mm
18:19 -2.3 °C -10.1 °C 34327.3 hPa East 32.8 km/h 32.8 km/h 42 % 0 mm
18:24 -2.4 °C -10.4 °C 34327.3 hPa SE 29.8 km/h 29.8 km/h 41 % 0 mm
18:29 -2.4 °C -10 °C 34327.3 hPa ESE 23.8 km/h 23.8 km/h 43 % 0 mm
18:34 -2.4 °C -10.2 °C 34327.3 hPa ESE 26.9 km/h 26.9 km/h 42 % 0 mm
18:35 -2.4 °C -10.2 °C 34327.3 hPa NNE 26.9 km/h 26.9 km/h 42 % 0 mm
18:40 -2.6 °C -10.2 °C 34327.3 hPa ESE 17.9 km/h 17.9 km/h 43 % 0 mm
18:45 -2.4 °C -9.9 °C 34327.3 hPa ESE 15 km/h 15.3 km/h 44 % 0 mm
18:50 -2.6 °C -9.9 °C 34327.3 hPa East 17.9 km/h 17.9 km/h 44 % 0 mm
18:55 -2.6 °C -9.9 °C 34327.3 hPa ESE 20.9 km/h 20.9 km/h 44 % 0 mm
19:00 -2.7 °C -10.1 °C 34327.3 hPa ESE 20.9 km/h 20.9 km/h 44 % 0 mm
19:05 -2.7 °C -9.9 °C 34327.3 hPa ESE 23.8 km/h 23.8 km/h 45 % 0 mm
19:10 -2.8 °C -9.9 °C 34293.4 hPa ESE 20.9 km/h 20.9 km/h 45 % 0 mm
19:15 -2.8 °C -9.9 °C 34293.4 hPa ESE 20.9 km/h 20.9 km/h 45 % 0 mm
19:20 -2.8 °C -9.8 °C 34293.4 hPa ESE 15 km/h 15 km/h 46 % 0 mm
19:25 -2.9 °C -9.7 °C 34327.3 hPa ESE 17.9 km/h 17.9 km/h 47 % 0 mm
19:30 -2.9 °C -9.6 °C 34327.3 hPa East 20.9 km/h 20.9 km/h 48 % 0 mm
19:35 -3 °C -9.6 °C 34327.3 hPa ESE 27.7 km/h 27.7 km/h 48 % 0 mm
19:40 -3.1 °C -9.5 °C 34327.3 hPa ENE 20.9 km/h 20.9 km/h 49 % 0 mm
19:45 -3.2 °C -9.6 °C 34327.3 hPa ESE 20.9 km/h 20.9 km/h 49 % 0 mm
19:50 -3.2 °C -9.5 °C 34327.3 hPa ESE 26.9 km/h 26.9 km/h 50 % 0 mm
19:55 -3.3 °C -9.6 °C 34327.3 hPa ENE 17.9 km/h 17.9 km/h 50 % 0 mm
20:00 -3.3 °C -9.3 °C 34327.3 hPa ESE 20.9 km/h 20.9 km/h 51 % 0 mm
20:05 -3.4 °C -9.4 °C 34327.3 hPa ENE 23.8 km/h 23.8 km/h 51 % 0 mm
20:10 -3.4 °C -9.3 °C 34327.3 hPa ESE 19.2 km/h 19.2 km/h 52 % 0 mm
20:15 -3.6 °C -9.3 °C 34327.3 hPa ESE 23.8 km/h 23.8 km/h 53 % 0 mm
20:16 -3.6 °C -9.3 °C 34327.3 hPa East 23.8 km/h 23.8 km/h 53 % 0 mm
20:21 -3.6 °C -9.2 °C 34327.3 hPa East 20.9 km/h 20.9 km/h 54 % 0 mm
20:25 -6.3 °C -8.7 °C 34428.8 hPa NW 5.1 km/h 5.1 km/h 76 % 0 mm
20:26 -3.6 °C -9.2 °C 34361.1 hPa ENE 15 km/h 15 km/h 54 % 0 mm
20:31 -3.7 °C -9.2 °C 34361.1 hPa ENE 17.9 km/h 17.9 km/h 54 % 0 mm
20:35 -6.3 °C -8.6 °C 34462.7 hPa WNW 2.6 km/h 5.1 km/h 77 % 0 mm
20:36 -3.7 °C -9.1 °C 34361.1 hPa East 20.9 km/h 20.9 km/h 55 % 0 mm
20:41 -3.8 °C -9.2 °C 34361.1 hPa ESE 15 km/h 15.3 km/h 55 % 0 mm
20:45 -6.3 °C -8.6 °C 34462.7 hPa Calm   2.6 km/h 78 % 0 mm
20:46 -3.9 °C -9.1 °C 34361.1 hPa ESE 14 km/h 14 km/h 56 % 0 mm
20:51 -4 °C -8.9 °C 34361.1 hPa ENE 20.9 km/h 20.9 km/h 58 % 0 mm
20:55 -6.3 °C -8.6 °C 34462.7 hPa Calm   5.1 km/h 78 % 0 mm
20:56 -4.1 °C -8.8 °C 34361.1 hPa SE 20.9 km/h 20.9 km/h 59 % 0 mm
21:01 -4.2 °C -8.8 °C 34361.1 hPa ESE 23.8 km/h 23.8 km/h 60 % 0 mm
21:05 -6.3 °C -8.6 °C 34428.8 hPa Calm   2.6 km/h 78 % 0 mm
21:06 -4.3 °C -8.7 °C 34361.1 hPa ESE 17.9 km/h 17.9 km/h 61 % 0 mm
21:11 -4.3 °C -8.7 °C 34361.1 hPa ESE 17.9 km/h 17.9 km/h 62 % 0 mm
21:15 -6.3 °C -8.4 °C 34462.7 hPa NNE 2.6 km/h 5.1 km/h 79 % 0 mm
21:16 -4.4 °C -8.7 °C 34361.1 hPa ENE 15 km/h 15 km/h 62 % 0 mm
21:21 -4.6 °C -8.7 °C 34361.1 hPa ENE 17.9 km/h 17.9 km/h 63 % 0 mm
21:25 -6.4 °C -8.6 °C 34462.7 hPa Calm   5.1 km/h 78 % 0 mm
21:26 -4.6 °C -8.6 °C 34361.1 hPa ESE 17.9 km/h 17.9 km/h 64 % 0 mm
21:31 -4.7 °C -8.8 °C 34361.1 hPa ENE 15 km/h 15 km/h 63 % 0 mm
21:35 -6.7 °C -8.8 °C 34428.8 hPa Calm   2.6 km/h 78 % 0 mm
21:36 -4.7 °C -8.7 °C 34361.1 hPa ENE 15 km/h 15 km/h 64 % 0 mm
21:41 -4.8 °C -8.8 °C 34361.1 hPa East 11.9 km/h 11.9 km/h 64 % 0 mm
21:45 -6.7 °C -8.8 °C 34428.8 hPa Calm   2.6 km/h 79 % 0 mm
21:46 -4.9 °C -8.7 °C 34361.1 hPa NNE 15 km/h 15 km/h 65 % 0 mm
21:51 -4.9 °C -8.8 °C 34361.1 hPa East 6 km/h 6 km/h 65 % 0 mm
21:55 -6.7 °C -8.7 °C 34428.8 hPa SE 2.6 km/h 5.1 km/h 80 % 0 mm
21:56 -4.9 °C -8.6 °C 34361.1 hPa ESE 15 km/h 15 km/h 67 % 0 mm
22:01 -5 °C -8.6 °C 34361.1 hPa NE 17.9 km/h 17.9 km/h 67 % 0 mm
22:05 -6.8 °C -8.8 °C 34395 hPa ENE 2.6 km/h 5.1 km/h 80 % 0 mm
22:06 -5 °C -8.4 °C 34361.1 hPa East 15 km/h 15 km/h 68 % 0 mm
22:11 -5.1 °C -8.5 °C 34395 hPa ESE 15 km/h 15 km/h 68 % 0 mm
22:15 -6.8 °C -8.9 °C 34395 hPa NE 5.1 km/h 5.1 km/h 79 % 0 mm
22:16 -5.1 °C -8.6 °C 34395 hPa East 15 km/h 15 km/h 68 % 0 mm
22:21 -5.2 °C -8.6 °C 34395 hPa ESE 9 km/h 9 km/h 68 % 0 mm
22:25 -6.9 °C -9 °C 34395 hPa NNW 2.6 km/h 5.1 km/h 79 % 0 mm
22:26 -5.2 °C -8.7 °C 34395 hPa ESE 8 km/h 8 km/h 68 % 0 mm
22:31 -5.3 °C -8.6 °C 34395 hPa ENE 9 km/h 9 km/h 69 % 0 mm
22:35 -6.9 °C -9.1 °C 34428.8 hPa WNW 2.6 km/h 2.6 km/h 78 % 0 mm
22:36 -5.2 °C -8.4 °C 34395 hPa East 17.9 km/h 17.9 km/h 70 % 0 mm
22:41 -5.3 °C -8.6 °C 34361.1 hPa ENE 9 km/h 9 km/h 69 % 0 mm
22:45 -6.8 °C -9 °C 34395 hPa North 2.6 km/h 5.1 km/h 78 % 0 mm
22:46 -5.3 °C -8.7 °C 34361.1 hPa ENE 9 km/h 9 km/h 69 % 0 mm
22:51 -5.4 °C -8.6 °C 34361.1 hPa NE 6 km/h 6 km/h 70 % 0 mm
22:55 -7.1 °C -9.4 °C 34395 hPa WSW 7.7 km/h 7.7 km/h 77 % 0 mm
22:56 -5.4 °C -8.8 °C 34361.1 hPa NNE 6 km/h 6 km/h 69 % 0 mm
23:01 -5.4 °C -8.7 °C 34361.1 hPa East 6 km/h 6.3 km/h 70 % 0 mm
23:05 -7.2 °C -9.3 °C 34395 hPa WSW 2.6 km/h 10.3 km/h 78 % 0 mm
23:06 -5.5 °C -8.7 °C 34361.1 hPa NE 9 km/h 9 km/h 70 % 0 mm
23:11 -5.6 °C -8.7 °C 34395 hPa East 6 km/h 6 km/h 70 % 0 mm
23:15 -7.1 °C -9.2 °C 34395 hPa WSW 2.6 km/h 5.1 km/h 79 % 0 mm
23:16 -5.6 °C -8.6 °C 34395 hPa East 6 km/h 6 km/h 71 % 0 mm
23:21 -5.6 °C -8.4 °C 34395 hPa East 8 km/h 8 km/h 73 % 0 mm
23:25 -7.3 °C -9.3 °C 34395 hPa WSW 2.6 km/h 5.1 km/h 79 % 0 mm
23:26 -5.6 °C -8.3 °C 34395 hPa East 9.3 km/h 9.3 km/h 74 % 0 mm
23:31 -5.7 °C -8.4 °C 34395 hPa ENE 9 km/h 9 km/h 74 % 0 mm
23:35 -7.3 °C -9.1 °C 34395 hPa Calm   2.6 km/h 81 % 0 mm
23:36 -5.7 °C -8.4 °C 34395 hPa NE 6 km/h 6 km/h 74 % 0 mm
23:41 -5.7 °C -8.4 °C 34395 hPa NNE 6 km/h 6 km/h 74 % 0 mm
23:45 -7.2 °C -9.4 °C 34395 hPa NE 2.6 km/h 5.1 km/h 78 % 0 mm
23:46 -5.7 °C -8.4 °C 34395 hPa NE 4.2 km/h 4.2 km/h 74 % 0 mm
23:51 -5.8 °C -8.3 °C 34395 hPa East 6 km/h 6 km/h 75 % 0 mm
23:55 -7.3 °C -9.5 °C 34395 hPa NE 7.7 km/h 10.3 km/h 78 % 0 mm
23:56 -5.8 °C -8.4 °C 34395 hPa Calm     75 % 0 mm
Meteo Sesrovires
Elogis d' Weather Underground - 3.75 mb

Guio original per  Jim McMurry - jmcmurry@mwt.net Adaptat per a la plantilla per  Wim van der Kuil - Leuven-Template.eu

Trobareu la nostra informacio del temps tambe a:

Weather Underground

AWEKAS